Time;durP1;ratioP1;P1;durP2;ratioP2;P2;SDS_P1;SDS_P2;PMS_P1;PMS_P2;Temp;Humidity;BMP_temperature;BMP_pressure;BME280_temperature;BME280_humidity;BME280_pressure;Samples;Min_cycle;Max_cycle;Signal;HPM_P1;HPM_P2
2021/11/02 00:01:56;;;;;;;;;;;7.30;99.90;;;;;;8363423;28;19927;-72
2021/11/02 00:05:57;;;;;;;;;;;7.20;99.90;;;;;;8362451;28;19994;-72
2021/11/02 00:10:02;;;;;;;;;;;7.20;99.90;;;;;;8353602;28;19978;-71
2021/11/02 00:14:06;;;;;;;;;;;7.20;99.90;;;;;;8354048;28;19921;-72
2021/11/02 00:18:08;;;;;;;;;;;7.20;99.90;;;;;;8363772;28;20359;-72
2021/11/02 00:22:17;;;;;;;;;;;7.10;99.90;;;;;;8359357;28;19921;-72
2021/11/02 00:26:19;;;;;;;;;;;7.10;99.90;;;;;;8359716;28;19924;-72
2021/11/02 00:30:21;;;;;;;;;;;7.00;99.90;;;;;;8359383;28;19925;-72
2021/11/02 00:34:22;;;;;;;;;;;7.00;99.90;;;;;;8357097;28;20798;-72
2021/11/02 00:38:25;;;;;;;;;;;6.90;99.90;;;;;;8348715;28;19920;-72
2021/11/02 00:43:12;;;;;;;;;;;6.90;99.90;;;;;;8355735;28;19921;-73
2021/11/02 00:46:51;;;;;;;;;;;6.80;99.90;;;;;;8361508;28;19921;-72
2021/11/02 00:50:52;;;;;;;;;;;6.80;99.90;;;;;;8360572;28;20285;-72
2021/11/02 00:54:54;;;;;;;;;;;6.80;99.90;;;;;;8350568;28;19928;-71
2021/11/02 00:58:56;;;;;;;;;;;6.80;99.90;;;;;;8347869;28;19921;-72
2021/11/02 01:02:57;;;;;;;;;;;6.80;99.90;;;;;;8356340;28;19929;-72
2021/11/02 01:06:59;;;;;;;;;;;6.80;99.90;;;;;;8356999;28;19924;-72
2021/11/02 01:11:01;;;;;;;;;;;6.80;99.90;;;;;;8356303;28;19950;-72
2021/11/02 01:15:03;;;;;;;;;;;6.80;99.90;;;;;;8358511;28;19925;-72
2021/11/02 01:19:05;;;;;;;;;;;6.70;99.90;;;;;;8364026;28;20005;-72
2021/11/02 01:23:07;;;;;;;;;;;6.70;99.90;;;;;;8359067;28;19920;-72
2021/11/02 01:27:09;;;;;;;;;;;6.70;99.90;;;;;;8357943;28;19921;-72
2021/11/02 01:31:10;;;;;;;;;;;6.70;99.90;;;;;;8381866;28;19920;-71
2021/11/02 01:35:12;;;;;;;;;;;6.70;99.90;;;;;;8364676;28;19954;-72
2021/11/02 01:39:14;;;;;;;;;;;6.60;99.90;;;;;;8387906;28;19921;-72
2021/11/02 01:43:15;;;;;;;;;;;6.50;99.90;;;;;;8363786;28;20316;-72
2021/11/02 01:47:17;;;;;;;;;;;6.50;99.90;;;;;;8363048;28;19927;-72
2021/11/02 01:51:20;;;;;;;;;;;6.40;99.90;;;;;;8363339;28;19932;-72
2021/11/02 01:55:21;;;;;;;;;;;6.30;99.90;;;;;;8371484;28;19928;-72
2021/11/02 01:59:26;;;;;;;;;;;6.40;99.90;;;;;;8357099;28;19932;-72
2021/11/02 02:03:33;;;;;;;;;;;6.40;99.90;;;;;;8373981;28;19929;-72
2021/11/02 02:07:54;;;;;;;;;;;6.40;99.90;;;;;;8393877;28;20300;-72
2021/11/02 02:12:06;;;;;;;;;;;6.40;99.90;;;;;;8386516;28;19921;-72
2021/11/02 02:16:17;;;;;;;;;;;6.30;99.90;;;;;;8360393;28;19920;-72
2021/11/02 02:20:27;;;;;;;;;;;6.30;99.90;;;;;;8351518;28;19924;-72
2021/11/02 02:24:39;;;;;;;;;;;6.30;99.90;;;;;;8356433;28;19929;-72
2021/11/02 02:28:42;;;;;;;;;;;6.40;99.90;;;;;;8360582;28;19927;-72
2021/11/02 02:32:46;;;;;;;;;;;6.40;99.90;;;;;;8375775;28;19920;-72
2021/11/02 02:36:50;;;;;;;;;;;6.50;99.90;;;;;;8358129;28;20441;-72
2021/11/02 02:40:52;;;;;;;;;;;6.40;99.90;;;;;;8360521;28;19974;-72
2021/11/02 02:44:54;;;;;;;;;;;6.40;99.90;;;;;;8358453;28;19921;-72
2021/11/02 02:48:57;;;;;;;;;;;6.40;99.90;;;;;;8357781;28;19927;-73
2021/11/02 02:53:00;;;;;;;;;;;6.50;99.90;;;;;;8375930;28;19921;-72
2021/11/02 02:57:02;;;;;;;;;;;6.50;99.90;;;;;;8350439;28;19931;-72
2021/11/02 03:01:05;;;;;;;;;;;6.50;99.90;;;;;;8361010;28;19929;-72
2021/11/02 03:05:08;;;;;;;;;;;6.50;99.90;;;;;;8363126;28;19921;-72
2021/11/02 03:09:10;;;;;;;;;;;6.50;99.90;;;;;;8357630;28;19928;-72
2021/11/02 03:13:15;;;;;;;;;;;6.50;99.90;;;;;;8360964;28;19928;-72
2021/11/02 03:17:20;;;;;;;;;;;6.50;99.90;;;;;;8390430;28;19920;-72
2021/11/02 03:56:10;;;;;;;;;;;6.50;99.90;;;;;;8359021;28;20548;-72
2021/11/02 04:00:33;;;;;;;;;;;6.50;99.90;;;;;;8355677;28;20376;-72
2021/11/02 05:10:12;;;;;;;;;;;6.40;99.90;;;;;;8361068;28;19927;-72
2021/11/02 05:57:26;;;;;;;;;;;6.50;99.90;;;;;;8353647;28;19928;-72
2021/11/02 06:01:42;;;;;;;;;;;6.50;99.90;;;;;;8355475;28;19932;-72
2021/11/02 06:05:51;;;;;;;;;;;6.60;99.90;;;;;;8375322;28;19924;-72
2021/11/02 06:10:01;;;;;;;;;;;6.60;99.90;;;;;;8356850;28;19982;-73
2021/11/02 06:31:35;;;;;;;;;;;6.70;99.90;;;;;;8353577;28;19924;-71
2021/11/02 06:35:52;;;;;;;;;;;6.70;99.90;;;;;;8362069;28;19928;-72
2021/11/02 06:49:31;;;;;;;;;;;6.70;99.90;;;;;;8343668;28;19920;-71
2021/11/02 06:58:27;;;;;;;;;;;6.70;99.90;;;;;;8361337;28;19925;-72
2021/11/02 07:19:59;;;;;;;;;;;6.80;99.90;;;;;;8350774;28;19928;-72
2021/11/02 07:24:07;;;;;;;;;;;6.90;99.90;;;;;;8355063;28;19924;-73
2021/11/02 07:28:28;;;;;;;;;;;6.90;99.90;;;;;;8362284;28;20442;-72
2021/11/02 08:47:21;;;;;;;;;;;7.90;99.90;;;;;;8356191;28;19929;-72
2021/11/02 08:51:23;;;;;;;;;;;8.00;99.90;;;;;;8357313;28;19928;-72
2021/11/02 08:55:25;;;;;;;;;;;8.10;99.90;;;;;;8368714;28;19921;-71
2021/11/02 08:59:26;;;;;;;;;;;8.10;99.90;;;;;;8351246;28;19920;-72
2021/11/02 09:03:29;;;;;;;;;;;8.20;99.90;;;;;;8355296;28;19931;-71
2021/11/02 09:07:31;;;;;;;;;;;8.20;99.90;;;;;;8355320;28;20299;-72
2021/11/02 09:11:38;;;;;;;;;;;8.30;99.90;;;;;;8350360;28;19920;-72
2021/11/02 09:15:40;;;;;;;;;;;8.30;99.90;;;;;;8354847;28;19971;-71
2021/11/02 09:19:42;;;;;;;;;;;8.40;99.90;;;;;;8352075;28;19982;-72
2021/11/02 09:23:47;;;;;;;;;;;8.40;99.90;;;;;;8348671;28;19921;-71
2021/11/02 09:27:49;;;;;;;;;;;8.50;99.90;;;;;;8364267;28;19940;-71
2021/11/02 09:31:56;;;;;;;;;;;8.50;99.90;;;;;;8356788;28;20399;-71
2021/11/02 09:35:59;;;;;;;;;;;8.60;99.90;;;;;;8353071;28;19968;-72
2021/11/02 09:40:07;;;;;;;;;;;8.60;99.90;;;;;;8349108;28;19921;-71
2021/11/02 09:44:13;;;;;;;;;;;8.60;99.90;;;;;;8350614;28;19921;-72
2021/11/02 09:48:27;;;;;;;;;;;8.70;99.90;;;;;;8371948;28;19921;-71
2021/11/02 09:52:41;;;;;;;;;;;8.70;99.90;;;;;;8355808;28;19924;-71
2021/11/02 09:57:13;;;;;;;;;;;8.70;99.90;;;;;;8358970;28;19924;-71
2021/11/02 10:01:21;;;;;;;;;;;8.70;99.90;;;;;;8357551;28;19924;-71
2021/11/02 10:05:45;;;;;;;;;;;8.70;99.90;;;;;;8356892;28;20011;-71
2021/11/02 10:09:55;;;;;;;;;;;8.70;99.90;;;;;;8360505;28;19974;-72
2021/11/02 10:13:58;;;;;;;;;;;8.70;99.90;;;;;;8351908;28;19974;-71
2021/11/02 10:18:18;;;;;;;;;;;8.70;99.90;;;;;;8353250;28;20371;-71
2021/11/02 10:27:13;;;;;;;;;;;8.80;99.90;;;;;;8353606;28;19929;-71
2021/11/02 10:31:34;;;;;;;;;;;8.80;99.90;;;;;;8351715;28;19924;-71
2021/11/02 10:35:40;;;;;;;;;;;8.80;99.90;;;;;;8350563;28;19929;-71
2021/11/02 10:39:43;;;;;;;;;;;8.90;99.90;;;;;;8353177;28;20648;-71
2021/11/02 10:43:51;;;;;;;;;;;8.90;99.90;;;;;;8352801;28;19924;-71
2021/11/02 10:48:03;;;;;;;;;;;9.00;99.90;;;;;;8373362;28;19924;-71
2021/11/02 10:52:06;;;;;;;;;;;9.00;99.90;;;;;;8351306;28;20042;-71
2021/11/02 10:56:09;;;;;;;;;;;9.10;99.90;;;;;;8354227;28;20383;-72
2021/11/02 11:00:11;;;;;;;;;;;9.10;99.90;;;;;;8353376;28;19927;-71
2021/11/02 11:04:14;;;;;;;;;;;9.10;99.90;;;;;;8400312;28;19925;-71
2021/11/02 11:08:16;;;;;;;;;;;9.20;99.90;;;;;;8361315;28;19931;-71
2021/11/02 11:12:18;;;;;;;;;;;9.20;99.90;;;;;;8372622;28;20276;-72
2021/11/02 11:16:24;;;;;;;;;;;9.20;99.90;;;;;;8354261;28;19924;-71
2021/11/02 11:20:26;;;;;;;;;;;9.20;99.90;;;;;;8354344;28;20410;-72
2021/11/02 11:24:33;;;;;;;;;;;9.30;99.90;;;;;;8363765;28;19932;-72
2021/11/02 11:28:36;;;;;;;;;;;9.30;99.90;;;;;;8362331;28;19929;-71
2021/11/02 11:32:39;;;;;;;;;;;9.30;99.90;;;;;;8358982;28;19921;-71
2021/11/02 11:36:42;;;;;;;;;;;9.30;99.90;;;;;;8360399;28;19939;-71
2021/11/02 11:40:44;;;;;;;;;;;9.30;99.90;;;;;;8373302;28;19936;-71
2021/11/02 11:44:50;;;;;;;;;;;9.40;99.90;;;;;;8360885;28;20368;-72
2021/11/02 11:48:54;;;;;;;;;;;9.40;99.90;;;;;;8359719;28;20316;-72
2021/11/02 11:53:00;;;;;;;;;;;9.40;99.90;;;;;;8352768;28;20302;-71
2021/11/02 11:57:01;;;;;;;;;;;9.40;99.90;;;;;;8353471;28;20288;-70
2021/11/02 12:01:13;;;;;;;;;;;9.60;99.90;;;;;;8351215;28;19932;-71
2021/11/02 12:05:19;;;;;;;;;;;9.70;99.90;;;;;;8356229;28;19947;-71
2021/11/02 12:09:22;;;;;;;;;;;9.80;99.90;;;;;;8355910;28;19928;-71
2021/11/02 12:13:24;;;;;;;;;;;9.90;99.90;;;;;;8369390;28;19970;-71
2021/11/02 12:17:29;;;;;;;10.10;6.57;;;10.00;99.90;;;;;;8355368;28;19958;-72
2021/11/02 12:21:34;;;;;;;10.10;6.53;;;10.10;99.90;;;;;;8346883;28;20079;-71
2021/11/02 12:25:40;;;;;;;11.60;6.63;;;10.20;99.90;;;;;;8348302;28;20052;-71
2021/11/02 12:29:46;;;;;;;12.40;6.80;;;10.30;99.90;;;;;;8354412;28;20045;-71
2021/11/02 12:33:52;;;;;;;10.05;5.82;;;10.40;99.90;;;;;;8347657;28;20041;-71
2021/11/02 12:37:57;;;;;;;11.05;6.63;;;10.40;99.90;;;;;;8344396;28;20118;-71
2021/11/02 12:41:59;;;;;;;10.65;6.45;;;10.40;99.90;;;;;;8352416;28;20053;-71
2021/11/02 12:46:05;;;;;;;11.40;6.22;;;10.30;99.90;;;;;;8349579;28;20505;-72
2021/11/02 12:50:09;;;;;;;11.20;5.97;;;10.20;99.90;;;;;;8354023;28;20465;-71
2021/11/02 12:54:13;;;;;;;10.30;5.45;;;10.20;99.90;;;;;;8347611;28;20052;-71
2021/11/02 12:58:18;;;;;;;10.25;6.03;;;10.20;99.90;;;;;;8356225;28;20045;-71
2021/11/02 13:02:30;;;;;;;9.77;5.88;;;10.20;99.90;;;;;;8348797;28;20045;-72
2021/11/02 13:06:39;;;;;;;9.40;5.95;;;10.20;99.90;;;;;;8357386;28;20037;-72
2021/11/02 13:10:42;;;;;;;13.80;6.20;;;10.30;99.90;;;;;;8361161;28;20477;-71
2021/11/02 13:14:46;;;;;;;8.90;5.50;;;10.20;99.90;;;;;;8353640;28;20061;-72
2021/11/02 13:18:48;;;;;;;7.70;5.10;;;10.20;99.90;;;;;;8367612;28;20048;-72
2021/11/02 13:22:51;;;;;;;11.65;6.20;;;10.20;99.90;;;;;;8353628;28;20102;-72
2021/11/02 13:26:55;;;;;;;8.90;5.53;;;10.20;99.90;;;;;;8359979;28;20087;-72
2021/11/02 13:30:58;;;;;;;9.43;5.90;;;10.10;99.90;;;;;;8360665;28;20060;-73
2021/11/02 13:35:00;;;;;;;10.90;6.50;;;10.00;99.90;;;;;;8351448;28;20056;-71
2021/11/02 13:39:12;;;;;;;8.80;5.43;;;9.90;99.90;;;;;;8358070;28;20049;-72
2021/11/02 13:43:36;;;;;;;9.45;5.88;;;9.80;99.90;;;;;;8346346;28;20049;-71
2021/11/02 13:47:40;;;;;;;9.48;5.78;;;9.80;99.90;;;;;;8346303;28;20480;-72
2021/11/02 13:51:42;;;;;;;12.27;6.93;;;9.70;99.90;;;;;;8350454;28;20056;-72
2021/11/02 13:55:45;;;;;;;8.52;5.32;;;9.70;99.90;;;;;;8359260;28;20048;-71
2021/11/02 13:59:47;;;;;;;11.05;5.10;;;9.70;99.90;;;;;;8353484;28;20063;-72
2021/11/02 14:04:00;;;;;;;9.48;5.43;;;9.70;99.90;;;;;;8358601;28;20139;-71
2021/11/02 14:08:02;;;;;;;11.60;6.10;;;9.70;99.90;;;;;;8358688;28;20045;-71
2021/11/02 14:12:21;;;;;;;13.20;5.38;;;9.70;99.90;;;;;;8352136;28;20054;-71
2021/11/02 14:16:43;;;;;;;9.73;6.22;;;9.70;99.90;;;;;;8357982;28;20048;-71
2021/11/02 14:20:51;;;;;;;12.65;6.72;;;9.70;99.90;;;;;;8353507;28;20049;-71
2021/11/02 14:25:14;;;;;;;10.63;6.30;;;9.70;99.90;;;;;;8374048;28;20059;-71
2021/11/02 14:29:18;;;;;;;12.00;6.43;;;9.70;99.90;;;;;;8363094;28;20045;-71
2021/11/02 14:33:21;;;;;;;8.40;5.68;;;9.60;99.90;;;;;;8357140;28;20053;-71
2021/11/02 14:37:25;;;;;;;9.00;5.50;;;9.60;99.90;;;;;;8389277;28;20546;-71
2021/11/02 14:41:32;;;;;;;7.47;5.00;;;9.50;99.90;;;;;;8358812;28;20056;-72
2021/11/02 14:45:41;;;;;;;10.15;5.50;;;9.60;99.90;;;;;;8361253;28;20442;-71
2021/11/02 14:49:43;;;;;;;8.68;5.10;;;9.60;99.90;;;;;;8361877;28;20044;-71
2021/11/02 14:53:45;;;;;;;7.35;4.80;;;9.50;99.90;;;;;;8351082;28;20508;-71
2021/11/02 14:57:51;;;;;;;8.52;5.00;;;9.60;99.90;;;;;;8360251;28;20045;-71
2021/11/02 15:02:05;;;;;;;8.48;5.20;;;9.60;99.90;;;;;;8355383;28;20099;-71
2021/11/02 15:06:12;;;;;;;8.48;4.78;;;9.60;99.90;;;;;;8356919;28;20055;-72
2021/11/02 15:10:19;;;;;;;7.88;5.00;;;9.60;99.90;;;;;;8352585;28;20045;-72
2021/11/02 15:14:24;;;;;;;8.95;4.72;;;9.60;99.90;;;;;;8353739;28;20493;-72
2021/11/02 15:18:49;;;;;;;8.57;4.97;;;9.70;99.90;;;;;;8355120;28;20511;-73
2021/11/02 15:22:57;;;;;;;8.25;5.00;;;9.60;99.90;;;;;;8381892;28;20053;-72
2021/11/02 15:27:11;;;;;;;7.22;4.97;;;9.60;99.90;;;;;;8347244;28;20045;-72
2021/11/02 15:31:15;;;;;;;6.80;3.47;;;9.60;99.90;;;;;;8328505;28;20045;-72
2021/11/02 15:35:24;;;;;;;7.97;3.38;;;9.50;99.90;;;;;;8325767;28;20229;-72
2021/11/02 15:39:26;;;;;;;5.45;2.80;;;9.40;99.90;;;;;;8336699;28;20493;-72
2021/11/02 15:43:27;;;;;;;5.10;2.50;;;9.40;99.90;;;;;;8322750;28;20041;-72
2021/11/02 15:47:31;;;;;;;6.28;2.65;;;9.40;99.90;;;;;;8345568;28;20053;-72
2021/11/02 15:51:36;;;;;;;7.00;2.75;;;9.40;99.90;;;;;;8321979;28;20045;-72
2021/11/02 15:55:39;;;;;;;4.32;1.90;;;9.40;99.90;;;;;;8327021;28;20397;-72
2021/11/02 15:59:41;;;;;;;4.70;2.10;;;9.40;99.90;;;;;;8323680;28;20148;-72
2021/11/02 16:03:43;;;;;;;4.95;2.35;;;9.40;99.90;;;;;;8321095;28;20397;-72
2021/11/02 16:07:44;;;;;;;4.63;2.30;;;9.30;99.90;;;;;;8323638;28;20049;-73
2021/11/02 16:11:49;;;;;;;4.03;1.88;;;9.30;99.90;;;;;;8334125;28;20071;-72
2021/11/02 16:15:51;;;;;;;4.50;1.70;;;9.30;99.90;;;;;;8321494;28;20119;-72
2021/11/02 16:19:56;;;;;;;4.57;2.13;;;9.20;99.90;;;;;;8324136;28;20045;-72
2021/11/02 16:24:06;;;;;;;5.13;2.30;;;9.20;99.90;;;;;;8318422;28;20435;-73
2021/11/02 16:28:12;;;;;;;4.53;2.40;;;9.10;99.90;;;;;;8326527;28;20500;-73
2021/11/02 16:32:28;;;;;;;4.28;1.95;;;9.10;99.90;;;;;;8320274;28;20068;-72
2021/11/02 16:36:37;;;;;;;4.80;2.05;;;9.10;99.90;;;;;;8320272;28;20049;-72
2021/11/02 16:40:45;;;;;;;4.32;2.13;;;9.20;99.90;;;;;;8334459;28;20065;-72
2021/11/02 16:44:46;;;;;;;;;;;9.20;99.90;;;;;;8318013;28;20122;-73
2021/11/02 16:48:48;;;;;;;4.00;1.92;;;9.20;99.90;;;;;;8327074;28;19947;-72
2021/11/02 16:52:50;;;;;;;8.07;2.00;;;9.20;99.90;;;;;;8327199;28;20053;-72
2021/11/02 16:57:01;;;;;;;4.28;1.50;;;9.20;99.90;;;;;;8339420;28;20494;-72
2021/11/02 17:01:16;;;;;;;3.67;1.50;;;9.20;99.90;;;;;;8354010;28;20412;-72
2021/11/02 17:05:36;;;;;;;3.50;1.48;;;9.10;99.90;;;;;;8331339;28;20470;-73
2021/11/02 17:09:41;;;;;;;3.42;1.48;;;9.10;99.90;;;;;;8328697;28;20059;-73
2021/11/02 17:13:43;;;;;;;2.70;1.23;;;9.10;99.90;;;;;;8326679;28;20190;-72
2021/11/02 17:17:45;;;;;;;5.78;1.40;;;9.10;99.90;;;;;;8329225;28;20061;-72
2021/11/02 17:21:50;;;;;;;4.22;1.40;;;9.10;99.90;;;;;;8330595;28;20125;-72
2021/11/02 17:25:53;;;;;;;4.00;1.70;;;9.00;99.90;;;;;;8331857;28;20048;-71
2021/11/02 17:29:55;;;;;;;2.97;1.33;;;9.10;99.90;;;;;;8343948;28;20069;-72
2021/11/02 17:33:56;;;;;;;6.20;1.23;;;9.10;99.90;;;;;;8358326;28;20049;-72
2021/11/02 17:38:01;;;;;;;3.65;1.27;;;9.10;99.90;;;;;;8342296;28;20425;-72
2021/11/02 17:42:06;;;;;;;5.22;1.20;;;9.10;99.90;;;;;;8326180;28;20053;-71
2021/11/02 17:46:09;;;;;;;3.03;1.27;;;9.10;99.90;;;;;;8329423;28;20136;-71
2021/11/02 17:50:16;;;;;;;3.58;1.27;;;9.10;99.90;;;;;;8325692;28;20041;-73
2021/11/02 17:54:19;;;;;;;4.53;1.20;;;9.00;99.90;;;;;;8325174;28;20500;-73
2021/11/02 17:58:22;;;;;;;2.45;1.20;;;9.00;99.90;;;;;;8323329;28;20098;-72
2021/11/02 18:02:24;;;;;;;4.03;1.23;;;9.00;99.90;;;;;;8327094;28;20041;-72
2021/11/02 18:06:27;;;;;;;3.63;1.40;;;8.90;99.90;;;;;;8326936;28;20583;-73
2021/11/02 18:10:30;;;;;;;4.10;1.70;;;8.90;99.90;;;;;;8326342;28;20511;-71
2021/11/02 18:14:32;;;;;;;3.03;1.50;;;8.90;99.90;;;;;;8327569;28;20080;-72
2021/11/02 18:18:37;;;;;;;5.03;1.38;;;8.90;99.90;;;;;;8322443;28;20087;-72
2021/11/02 18:22:41;;;;;;;4.35;1.63;;;8.90;99.90;;;;;;8357077;28;20037;-73
2021/11/02 18:26:43;;;;;;;2.97;1.35;;;8.80;99.90;;;;;;8341004;28;20053;-72
2021/11/02 18:30:45;;;;;;;5.40;1.40;;;8.80;99.90;;;;;;8323622;28;20152;-72
2021/11/02 18:34:48;;;;;;;2.80;1.30;;;8.80;99.90;;;;;;8327622;28;20053;-72
2021/11/02 18:38:51;;;;;;;2.90;1.30;;;8.80;99.90;;;;;;8326408;28;20286;-72
2021/11/02 18:42:53;;;;;;;3.20;1.10;;;8.80;99.90;;;;;;8326500;28;20053;-72
2021/11/02 18:46:55;;;;;;;;;;;8.80;99.90;;;;;;8327250;28;20286;-72
2021/11/02 18:50:57;;;;;;;;;;;8.70;99.90;;;;;;8325887;28;19925;-72
2021/11/02 18:54:59;;;;;;;2.60;1.10;;;8.60;99.90;;;;;;8341291;28;20278;-72
2021/11/02 18:59:00;;;;;;;;;;;8.60;99.90;;;;;;8324394;28;19921;-72
2021/11/02 19:03:02;;;;;;;;;;;8.50;99.90;;;;;;8341605;28;19921;-72
2021/11/02 19:07:04;;;;;;;;;;;8.50;99.90;;;;;;8326771;28;20357;-71
2021/11/02 19:11:06;;;;;;;;;;;8.40;99.90;;;;;;8334379;28;19980;-73
2021/11/02 19:15:08;;;;;;;;;;;8.40;99.90;;;;;;8316341;28;19987;-73
2021/11/02 19:19:10;;;;;;;;;;;8.40;99.90;;;;;;8317517;28;19929;-72
2021/11/02 19:23:12;;;;;;;;;;;8.40;99.90;;;;;;8327523;28;19925;-71
2021/11/02 19:27:14;;;;;;;;;;;8.40;99.90;;;;;;8342473;28;19929;-71
2021/11/02 19:31:15;;;;;;;;;;;8.40;99.90;;;;;;8322444;28;19932;-71
2021/11/02 19:35:17;;;;;;;;;;;8.50;99.90;;;;;;8329539;28;19929;-72
2021/11/02 19:39:20;;;;;;;;;;;8.50;99.90;;;;;;8326464;28;19921;-72
2021/11/02 19:43:24;;;;;;;;;;;8.50;99.90;;;;;;8323504;28;19936;-71
2021/11/02 19:47:25;;;;;;;;;;;8.60;99.90;;;;;;8322021;28;20351;-71
2021/11/02 19:51:27;;;;;;;;;;;8.50;99.90;;;;;;8337892;28;19928;-72
2021/11/02 19:55:31;;;;;;;;;;;8.60;99.90;;;;;;8337132;28;19928;-73
2021/11/02 19:59:32;;;;;;;;;;;8.60;99.90;;;;;;8323844;28;19929;-72
2021/11/02 20:03:34;;;;;;;;;;;8.60;99.90;;;;;;8323679;28;19928;-72
2021/11/02 20:07:38;;;;;;;;;;;8.50;99.90;;;;;;8322690;28;19929;-71
2021/11/02 20:11:45;;;;;;;;;;;8.50;99.90;;;;;;8322450;28;19925;-72
2021/11/02 20:15:48;;;;;;;;;;;8.40;99.90;;;;;;8319481;28;19925;-71
2021/11/02 20:19:50;;;;;;;;;;;8.40;99.90;;;;;;8321426;28;19971;-71
2021/11/02 20:23:53;;;;;;;;;;;8.30;99.90;;;;;;8336037;28;19933;-72
2021/11/02 20:27:58;;;;;;;;;;;8.20;99.90;;;;;;8322107;28;19921;-72
2021/11/02 20:32:02;;;;;;;;;;;8.10;99.90;;;;;;8325398;28;19928;-72
2021/11/02 20:36:04;;;;;;;;;;;8.00;99.90;;;;;;8322736;28;19921;-72
2021/11/02 20:40:07;;;;;;;;;;;7.90;99.90;;;;;;8319346;28;19975;-72
2021/11/02 20:44:10;;;;;;;;;;;7.80;99.90;;;;;;8324891;28;19932;-72
2021/11/02 20:48:16;;;;;;;;;;;7.70;99.90;;;;;;8322786;28;20269;-71
2021/11/02 20:52:19;;;;;;;;;;;7.60;99.90;;;;;;8327017;28;19979;-72
2021/11/02 20:56:24;;;;;;;;;;;7.60;99.90;;;;;;8321908;28;20335;-72
2021/11/02 21:00:25;;;;;;;;;;;7.60;99.90;;;;;;8324326;28;19928;-72
2021/11/02 21:04:27;;;;;;;;;;;7.60;99.90;;;;;;8321268;28;20027;-72
2021/11/02 21:08:32;;;;;;;;;;;7.60;99.90;;;;;;8337083;28;19920;-72
2021/11/02 21:12:34;;;;;;;;;;;7.70;99.90;;;;;;8322091;28;19925;-72
2021/11/02 21:16:37;;;;;;;;;;;7.70;99.90;;;;;;8320611;28;19925;-72
2021/11/02 21:20:39;;;;;;;;;;;7.60;99.90;;;;;;8319821;28;19928;-72
2021/11/02 21:24:41;;;;;;;;;;;7.60;99.90;;;;;;8321712;28;19976;-72
2021/11/02 21:28:43;;;;;;;;;;;7.60;99.90;;;;;;8323101;28;19947;-72
2021/11/02 21:32:46;;;;;;;;;;;7.50;99.90;;;;;;8322311;28;19920;-72
2021/11/02 21:36:48;;;;;;;;;;;7.50;99.90;;;;;;8337498;28;20262;-72
2021/11/02 21:40:57;;;;;;;;;;;7.40;99.90;;;;;;8321316;28;19991;-72
2021/11/02 21:45:07;;;;;;;;;;;7.40;99.90;;;;;;8344325;28;19936;-71
2021/11/02 21:49:12;;;;;;;;;;;7.30;99.90;;;;;;8326141;28;19921;-72
2021/11/02 21:53:18;;;;;;;;;;;7.30;99.90;;;;;;8327086;28;19921;-72
2021/11/02 21:57:23;;;;;;;;;;;7.20;99.90;;;;;;8329936;28;19928;-73
2021/11/02 22:01:25;;;;;;;;;;;7.10;99.90;;;;;;8328293;28;19921;-72
2021/11/02 22:05:28;;;;;;;;;;;7.00;99.90;;;;;;8344743;28;19928;-72
2021/11/02 22:09:30;;;;;;;;;;;6.90;99.90;;;;;;8364534;28;20002;-71
2021/11/02 22:13:32;;;;;;;;;;;6.80;99.90;;;;;;8360266;28;19928;-72
2021/11/02 22:17:34;;;;;;;;;;;6.80;99.90;;;;;;8354558;28;19921;-72
2021/11/02 22:21:35;;;;;;;;;;;6.70;99.90;;;;;;8351547;28;19924;-71
2021/11/02 22:25:37;;;;;;;;;;;6.60;99.90;;;;;;8359350;28;19994;-71
2021/11/02 22:29:39;;;;;;;;;;;6.60;99.90;;;;;;8377154;28;19928;-71
2021/11/02 22:33:41;;;;;;;;;;;6.60;99.90;;;;;;8360286;28;19976;-72
2021/11/02 22:37:43;;;;;;;;;;;6.50;99.90;;;;;;8365145;28;19925;-72
2021/11/02 22:42:05;;;;;;;;;;;6.40;99.90;;;;;;8354406;28;19921;-72
2021/11/02 22:46:07;;;;;;;;;;;6.40;99.90;;;;;;8357107;28;19992;-71
2021/11/02 22:50:10;;;;;;;;;;;6.30;99.90;;;;;;8356857;28;19929;-71
2021/11/02 22:54:12;;;;;;;;;;;6.20;99.90;;;;;;8355686;28;20300;-71
2021/11/02 22:58:13;;;;;;;;;;;6.20;99.90;;;;;;8369018;28;19920;-72
2021/11/02 23:02:15;;;;;;;;;;;6.20;99.90;;;;;;8348271;28;20438;-71
2021/11/02 23:06:17;;;;;;;;;;;6.10;99.90;;;;;;8368050;28;20343;-71
2021/11/02 23:10:18;;;;;;;;;;;6.10;99.90;;;;;;8348342;28;19925;-71
2021/11/02 23:14:20;;;;;;;;;;;6.10;99.90;;;;;;8360221;28;19920;-71
2021/11/02 23:18:34;;;;;;;;;;;6.00;99.90;;;;;;8350495;28;19921;-72
2021/11/02 23:22:41;;;;;;;;;;;6.00;99.90;;;;;;8341707;28;19925;-72
2021/11/02 23:26:46;;;;;;;;;;;5.90;99.90;;;;;;8353720;28;20287;-71
2021/11/02 23:30:48;;;;;;;;;;;5.80;99.90;;;;;;8356401;28;19978;-71
2021/11/02 23:34:50;;;;;;;;;;;5.80;99.90;;;;;;8356152;28;19921;-72
2021/11/02 23:38:52;;;;;;;;;;;5.70;99.90;;;;;;8349150;28;20388;-71
2021/11/02 23:42:54;;;;;;;;;;;5.70;99.90;;;;;;8355987;28;19927;-72
2021/11/02 23:46:55;;;;;;;;;;;5.60;99.90;;;;;;8356581;28;20008;-72
2021/11/02 23:50:57;;;;;;;;;;;5.50;99.90;;;;;;8350233;28;19928;-72
2021/11/02 23:54:59;;;;;;;;;;;5.50;99.90;;;;;;8353188;28;19920;-72
2021/11/02 23:59:00;;;;;;;;;;;5.40;99.90;;;;;;8356813;28;19921;-72
